createdAt,value
2018-08-12T00:01:50.162Z,63.90
2018-08-12T00:04:18.504Z,64.00
2018-08-12T00:06:46.805Z,64.70
2018-08-12T00:09:15.145Z,64.90
2018-08-12T00:11:43.497Z,65.10
2018-08-12T00:14:12.046Z,65.00
2018-08-12T00:16:40.400Z,65.00
2018-08-12T00:19:08.788Z,65.20
2018-08-12T00:21:37.120Z,65.30
2018-08-12T00:24:05.489Z,65.50
2018-08-12T00:26:33.825Z,65.60
2018-08-12T00:29:02.193Z,65.80
2018-08-12T00:31:30.523Z,65.70
2018-08-12T00:33:58.857Z,65.70
2018-08-12T00:36:28.329Z,65.70
2018-08-12T00:38:56.688Z,65.80
2018-08-12T00:41:25.036Z,65.80
2018-08-12T00:43:53.402Z,65.80
2018-08-12T00:46:21.801Z,65.80
2018-08-12T00:48:50.154Z,66.00
2018-08-12T00:51:18.486Z,66.10
2018-08-12T00:53:46.862Z,66.30
2018-08-12T00:56:15.205Z,66.40
2018-08-12T00:58:43.537Z,66.40
2018-08-12T01:01:11.875Z,66.40
2018-08-12T01:03:40.246Z,66.30
2018-08-12T01:06:08.593Z,66.50
2018-08-12T01:08:36.982Z,67.40
2018-08-12T01:11:05.453Z,66.80
2018-08-12T01:13:33.769Z,66.80
2018-08-12T01:16:02.128Z,66.90
2018-08-12T01:18:30.684Z,66.90
2018-08-12T01:20:59.036Z,67.20
2018-08-12T01:23:27.353Z,67.30
2018-08-12T01:25:55.764Z,67.50
2018-08-12T01:28:24.149Z,67.40
2018-08-12T01:30:52.550Z,67.30
2018-08-12T01:33:20.921Z,67.50
2018-08-12T01:35:49.279Z,67.30
2018-08-12T01:38:17.587Z,67.50
2018-08-12T01:40:45.911Z,67.30
2018-08-12T01:43:14.208Z,67.30
2018-08-12T01:45:42.532Z,67.10
2018-08-12T01:48:10.850Z,67.10
2018-08-12T01:50:39.301Z,67.10
2018-08-12T01:53:07.609Z,67.50
2018-08-12T01:55:35.949Z,67.80
2018-08-12T01:58:04.276Z,67.60
2018-08-12T02:00:32.604Z,67.80
2018-08-12T02:03:00.929Z,67.70
2018-08-12T02:05:29.272Z,67.70
2018-08-12T02:07:57.612Z,67.90
2018-08-12T02:10:25.961Z,68.10
2018-08-12T02:12:54.307Z,68.00
2018-08-12T02:15:22.733Z,67.80
2018-08-12T02:17:51.051Z,68.20
2018-08-12T02:20:19.376Z,68.30
2018-08-12T02:22:47.712Z,68.00
2018-08-12T02:25:16.036Z,68.30
2018-08-12T02:27:44.356Z,68.10
2018-08-12T02:30:13.443Z,68.80
2018-08-12T02:32:42.708Z,68.00
2018-08-12T02:35:11.217Z,68.10
2018-08-12T02:37:40.132Z,68.10
2018-08-12T02:40:09.371Z,68.30
2018-08-12T02:42:37.681Z,68.20
2018-08-12T02:45:07.820Z,68.40
2018-08-12T02:47:36.128Z,68.50
2018-08-12T02:50:04.593Z,68.30
2018-08-12T02:52:32.920Z,68.60
2018-08-12T02:55:01.271Z,68.70
2018-08-12T02:57:29.604Z,68.80
2018-08-12T02:59:57.946Z,68.80
2018-08-12T03:02:26.257Z,69.00
2018-08-12T03:04:54.609Z,68.70
2018-08-12T03:07:22.950Z,68.90
2018-08-12T03:09:51.315Z,69.10
2018-08-12T03:12:19.627Z,69.00
2018-08-12T03:14:47.941Z,69.00
2018-08-12T03:17:16.256Z,69.00
2018-08-12T03:19:44.573Z,69.10
2018-08-12T03:22:12.870Z,68.70
2018-08-12T03:24:41.581Z,68.60
2018-08-12T03:27:09.904Z,68.90
2018-08-12T03:29:38.261Z,69.20
2018-08-12T03:32:06.619Z,69.10
2018-08-12T03:34:34.917Z,69.00
2018-08-12T03:37:03.296Z,69.40
2018-08-12T03:39:31.617Z,69.10
2018-08-12T03:41:59.940Z,69.40
2018-08-12T03:44:28.236Z,69.10
2018-08-12T03:46:56.563Z,69.30
2018-08-12T03:49:24.873Z,69.40
2018-08-12T03:51:53.265Z,69.50
2018-08-12T03:54:21.776Z,69.50
2018-08-12T03:56:50.162Z,69.70
2018-08-12T03:59:18.468Z,70.00
2018-08-12T04:01:46.796Z,69.80
2018-08-12T04:04:15.096Z,69.80
2018-08-12T04:06:43.416Z,70.00
2018-08-12T04:09:12.100Z,70.00
2018-08-12T04:11:40.451Z,70.30
2018-08-12T04:14:08.800Z,70.40
2018-08-12T04:16:37.144Z,70.60
2018-08-12T04:19:05.882Z,70.40
2018-08-12T04:21:34.149Z,70.80
2018-08-12T04:24:02.449Z,70.80
2018-08-12T04:26:30.767Z,71.00
2018-08-12T04:28:59.084Z,71.20
2018-08-12T04:31:27.400Z,71.10
2018-08-12T04:33:55.745Z,70.90
2018-08-12T04:36:24.107Z,71.00
2018-08-12T04:38:52.478Z,71.00
2018-08-12T04:41:20.812Z,70.70
2018-08-12T04:43:49.117Z,70.60
2018-08-12T04:46:17.454Z,70.70
2018-08-12T04:48:45.757Z,70.50
2018-08-12T04:51:14.076Z,70.40
2018-08-12T04:53:42.396Z,70.30
2018-08-12T04:56:10.755Z,70.40
2018-08-12T04:58:39.083Z,70.60
2018-08-12T05:01:07.590Z,70.60
2018-08-12T05:03:35.892Z,70.70
2018-08-12T05:06:04.216Z,71.00
2018-08-12T05:08:32.513Z,71.10
2018-08-12T05:11:00.861Z,70.90
2018-08-12T05:13:29.180Z,71.10
2018-08-12T05:15:57.526Z,71.60
2018-08-12T05:18:25.840Z,71.60
2018-08-12T05:20:54.204Z,71.40
2018-08-12T05:23:22.518Z,71.40
2018-08-12T05:25:50.836Z,70.90
2018-08-12T05:28:19.183Z,70.90
2018-08-12T05:30:47.495Z,70.90
2018-08-12T05:33:15.804Z,70.90
2018-08-12T05:35:44.121Z,70.80
2018-08-12T05:38:12.408Z,71.00
2018-08-12T05:40:40.729Z,71.30
2018-08-12T05:43:09.057Z,71.30
2018-08-12T05:45:37.363Z,71.20
2018-08-12T05:48:05.999Z,71.00
2018-08-12T05:50:34.375Z,70.80
2018-08-12T05:53:02.699Z,70.50
2018-08-12T05:55:31.039Z,70.60
2018-08-12T05:57:59.376Z,70.50
2018-08-12T06:00:27.692Z,70.70
2018-08-12T06:02:56.024Z,70.40
2018-08-12T06:05:24.361Z,70.40
2018-08-12T06:07:52.695Z,70.60
2018-08-12T06:10:21.039Z,70.30
2018-08-12T06:12:49.364Z,69.90
2018-08-12T06:15:18.149Z,69.60
2018-08-12T06:17:46.508Z,69.10
2018-08-12T06:20:15.177Z,68.80
2018-08-12T06:22:43.505Z,68.00
2018-08-12T06:25:12.480Z,68.00
2018-08-12T06:27:40.863Z,67.10
2018-08-12T06:30:11.344Z,66.70
2018-08-12T06:32:39.724Z,66.50
2018-08-12T06:35:08.877Z,66.50
2018-08-12T06:37:37.302Z,66.40
2018-08-12T06:40:07.713Z,66.50
2018-08-12T06:42:36.044Z,65.80
2018-08-12T06:45:07.844Z,65.20
2018-08-12T06:47:36.167Z,64.40
2018-08-12T06:50:05.348Z,64.00
2018-08-12T06:52:33.712Z,63.20
2018-08-12T06:55:02.108Z,63.20
2018-08-12T06:57:30.479Z,63.10
2018-08-12T06:59:58.793Z,63.00
2018-08-12T07:02:27.320Z,62.60
2018-08-12T07:04:55.676Z,61.90
2018-08-12T07:07:24.087Z,61.40
2018-08-12T07:09:52.421Z,60.80
2018-08-12T07:12:20.850Z,60.30
2018-08-12T07:14:49.161Z,59.50
2018-08-12T07:17:18.330Z,59.30
2018-08-12T07:19:46.655Z,58.50
2018-08-12T07:22:14.972Z,58.50
2018-08-12T07:24:43.343Z,58.50
2018-08-12T07:27:11.651Z,58.00
2018-08-12T07:29:40.019Z,57.20
2018-08-12T07:32:08.416Z,56.50
2018-08-12T07:34:36.720Z,56.00
2018-08-12T07:37:05.903Z,55.70
2018-08-12T07:39:34.219Z,56.10
2018-08-12T07:42:02.558Z,55.40
2018-08-12T07:44:30.869Z,55.50
2018-08-12T07:46:59.287Z,55.30
2018-08-12T07:49:27.643Z,55.00
2018-08-12T07:51:55.987Z,54.90
2018-08-12T07:54:24.414Z,55.10
2018-08-12T07:56:52.792Z,55.10
2018-08-12T07:59:21.131Z,54.60
2018-08-12T08:01:49.433Z,55.20
2018-08-12T08:04:18.324Z,54.90
2018-08-12T08:06:46.613Z,54.40
2018-08-12T08:09:14.935Z,54.40
2018-08-12T08:11:43.505Z,54.90
2018-08-12T08:14:11.852Z,54.10
2018-08-12T08:16:40.168Z,54.30
2018-08-12T08:19:08.523Z,53.20
2018-08-12T08:21:36.837Z,52.30
2018-08-12T08:24:05.322Z,51.90
2018-08-12T08:26:33.632Z,51.40
2018-08-12T08:29:01.958Z,51.30
2018-08-12T08:31:30.337Z,51.30
2018-08-12T08:33:58.682Z,51.90
2018-08-12T08:36:27.011Z,51.20
2018-08-12T08:38:55.373Z,51.00
2018-08-12T08:41:23.720Z,49.40
2018-08-12T08:43:52.115Z,50.00
2018-08-12T08:46:20.401Z,49.40
2018-08-12T08:48:48.738Z,49.20
2018-08-12T08:51:17.059Z,49.40
2018-08-12T08:53:45.385Z,48.80
2018-08-12T08:56:13.825Z,50.00
2018-08-12T08:58:42.075Z,49.10
2018-08-12T09:01:10.409Z,49.00
2018-08-12T09:03:45.064Z,48.70
2018-08-12T09:06:13.372Z,47.20
2018-08-12T09:08:42.058Z,46.80
2018-08-12T09:11:10.045Z,45.20
2018-08-12T09:13:38.378Z,44.10
2018-08-12T09:16:06.733Z,45.60
2018-08-12T09:18:35.052Z,46.00
2018-08-12T09:21:03.368Z,46.60
2018-08-12T09:23:31.689Z,44.90
2018-08-12T09:25:59.992Z,45.30
2018-08-12T09:28:28.328Z,44.50
2018-08-12T09:30:56.655Z,44.50
2018-08-12T09:33:25.032Z,44.50
2018-08-12T09:35:53.348Z,46.10
2018-08-12T09:38:21.705Z,45.00
2018-08-12T09:40:50.019Z,44.80
2018-08-12T09:43:18.352Z,44.30
2018-08-12T09:45:46.666Z,42.70
2018-08-12T09:48:14.997Z,43.30
2018-08-12T09:50:43.304Z,43.50
2018-08-12T09:53:11.621Z,43.00
2018-08-12T09:55:39.936Z,42.30
2018-08-12T09:58:08.345Z,42.70
2018-08-12T10:00:39.046Z,40.90
2018-08-12T10:03:08.281Z,40.70
2018-08-12T10:05:36.592Z,40.60
2018-08-12T10:08:04.947Z,40.40
2018-08-12T10:10:33.287Z,40.90
2018-08-12T10:13:01.627Z,40.50
2018-08-12T10:15:29.983Z,39.00
2018-08-12T10:18:00.110Z,39.00
2018-08-12T10:20:28.425Z,40.20
2018-08-12T10:22:56.781Z,38.20
2018-08-12T10:25:25.100Z,37.70
2018-08-12T10:27:53.436Z,38.60
2018-08-12T10:30:21.797Z,38.70
2018-08-12T10:32:50.113Z,38.90
2018-08-12T10:35:18.472Z,37.60
2018-08-12T10:37:47.046Z,35.40
2018-08-12T10:40:17.009Z,37.30
2018-08-12T10:42:46.203Z,36.70
2018-08-12T10:45:14.569Z,36.90
2018-08-12T10:47:43.522Z,37.30
2018-08-12T10:50:14.205Z,37.00
2018-08-12T10:52:43.716Z,36.20
2018-08-12T10:55:13.285Z,35.60
2018-08-12T10:57:41.749Z,36.80
2018-08-12T11:00:15.556Z,36.70
2018-08-12T11:02:44.216Z,37.70
2018-08-12T11:05:13.232Z,35.70
2018-08-12T11:07:41.558Z,33.90
2018-08-12T11:10:10.660Z,35.10
2018-08-12T11:12:38.991Z,35.60
2018-08-12T11:15:08.089Z,36.60
2018-08-12T11:17:36.398Z,33.90
2018-08-12T11:20:05.224Z,34.30
2018-08-12T11:22:33.544Z,33.40
2018-08-12T11:25:01.912Z,33.80
2018-08-12T11:27:30.236Z,32.80
2018-08-12T11:29:58.575Z,34.80
2018-08-12T11:32:26.900Z,34.00
2018-08-12T11:34:55.333Z,34.10
2018-08-12T11:37:23.654Z,35.30
2018-08-12T11:39:52.046Z,35.40
2018-08-12T11:42:20.356Z,34.40
2018-08-12T11:44:48.688Z,34.80
2018-08-12T11:47:17.005Z,33.10
2018-08-12T11:49:45.335Z,32.40
2018-08-12T11:52:13.654Z,32.30
2018-08-12T11:54:42.004Z,32.10
2018-08-12T11:57:10.364Z,30.90
2018-08-12T11:59:38.733Z,30.70
2018-08-12T12:02:07.892Z,30.50
2018-08-12T12:04:36.565Z,29.00
2018-08-12T12:07:05.051Z,29.80
2018-08-12T12:09:33.429Z,29.60
2018-08-12T12:12:01.743Z,29.80
2018-08-12T12:14:30.101Z,29.70
2018-08-12T12:16:58.396Z,29.50
2018-08-12T12:19:26.741Z,29.40
2018-08-12T12:21:55.076Z,28.90
2018-08-12T12:24:23.466Z,29.50
2018-08-12T12:26:51.816Z,29.40
2018-08-12T12:29:20.145Z,28.40
2018-08-12T12:31:48.460Z,28.50
2018-08-12T12:34:16.790Z,29.10
2018-08-12T12:36:45.281Z,28.80
2018-08-12T12:39:14.360Z,28.00
2018-08-12T12:41:42.717Z,28.10
2018-08-12T12:44:11.085Z,28.10
2018-08-12T12:46:39.412Z,28.30
2018-08-12T12:49:07.781Z,26.50
2018-08-12T12:51:36.110Z,27.40
2018-08-12T12:54:04.445Z,27.00
2018-08-12T12:56:32.779Z,26.60
2018-08-12T12:59:02.311Z,26.40
2018-08-12T13:01:30.634Z,26.50
2018-08-12T13:03:58.979Z,27.00
2018-08-12T13:06:27.296Z,27.00
2018-08-12T13:08:55.636Z,27.00
2018-08-12T13:11:24.018Z,26.60
2018-08-12T13:13:52.406Z,26.10
2018-08-12T13:16:20.763Z,26.30
2018-08-12T13:18:49.139Z,26.20
2018-08-12T13:21:17.450Z,25.80
2018-08-12T13:23:45.764Z,25.60
2018-08-12T13:26:14.104Z,24.60
2018-08-12T13:28:42.448Z,24.60
2018-08-12T13:31:10.803Z,24.50
2018-08-12T13:33:39.148Z,24.70
2018-08-12T13:36:07.460Z,24.40
2018-08-12T13:38:35.768Z,24.50
2018-08-12T13:41:04.117Z,24.80
2018-08-12T13:43:32.562Z,23.60
2018-08-12T13:46:00.827Z,23.80
2018-08-12T13:48:29.136Z,24.30
2018-08-12T13:50:57.471Z,24.00
2018-08-12T13:53:25.813Z,24.10
2018-08-12T13:55:54.210Z,24.20
2018-08-12T13:58:22.533Z,23.80
2018-08-12T14:00:50.876Z,23.50
2018-08-12T14:03:19.189Z,23.90
2018-08-12T14:05:47.548Z,23.10
2018-08-12T14:08:15.877Z,23.30
2018-08-12T14:10:44.208Z,23.70
2018-08-12T14:13:12.513Z,23.70
2018-08-12T14:15:40.874Z,24.10
2018-08-12T14:18:09.212Z,24.30
2018-08-12T14:20:37.536Z,23.60
2018-08-12T14:23:05.869Z,23.60
2018-08-12T14:25:34.207Z,23.50
2018-08-12T14:28:02.527Z,22.90
2018-08-12T14:30:30.867Z,22.50
2018-08-12T14:32:59.184Z,22.50
2018-08-12T14:35:27.492Z,22.70
2018-08-12T14:37:55.818Z,22.40
2018-08-12T14:40:24.176Z,23.10
2018-08-12T14:42:52.486Z,23.10
2018-08-12T14:45:20.844Z,23.00
2018-08-12T14:47:49.176Z,23.30
2018-08-12T14:50:19.451Z,23.50
2018-08-12T14:52:47.770Z,23.20
2018-08-12T14:55:17.731Z,23.20
2018-08-12T14:57:46.165Z,23.10
2018-08-12T15:00:16.043Z,23.30
2018-08-12T15:02:45.149Z,23.20
2018-08-12T15:05:13.485Z,22.60
2018-08-12T15:07:41.780Z,22.90
2018-08-12T15:10:11.271Z,22.70
2018-08-12T15:12:40.017Z,22.50
2018-08-12T15:15:09.894Z,22.90
2018-08-12T15:17:38.881Z,23.30
2018-08-12T15:20:07.404Z,23.30
2018-08-12T15:22:35.988Z,23.60
2018-08-12T15:25:05.615Z,23.60
2018-08-12T15:27:33.928Z,24.00
2018-08-12T15:30:02.303Z,23.80
2018-08-12T15:32:30.640Z,23.80
2018-08-12T15:34:58.936Z,23.80
2018-08-12T15:37:27.284Z,24.60
2018-08-12T15:39:55.625Z,24.50
2018-08-12T15:42:24.065Z,24.30
2018-08-12T15:44:52.360Z,24.30
2018-08-12T15:47:20.724Z,23.90
2018-08-12T15:51:13.579Z,23.90
2018-08-12T15:53:41.871Z,23.90
2018-08-12T15:56:10.237Z,24.20
2018-08-12T15:58:38.579Z,24.70
2018-08-12T16:01:07.001Z,25.00
2018-08-12T16:03:35.431Z,24.80
2018-08-12T16:06:03.697Z,24.80
2018-08-12T16:08:32.001Z,24.50
2018-08-12T16:11:00.313Z,24.70
2018-08-12T16:13:28.608Z,24.80
2018-08-12T16:15:56.951Z,24.50
2018-08-12T16:18:25.320Z,24.70
2018-08-12T16:20:53.688Z,25.70
2018-08-12T16:23:22.033Z,25.00
2018-08-12T16:25:50.393Z,24.80
2018-08-12T16:28:18.684Z,24.90
2018-08-12T16:30:46.985Z,25.00
2018-08-12T16:33:15.310Z,25.10
2018-08-12T16:35:43.621Z,25.20
2018-08-12T16:38:11.952Z,25.70
2018-08-12T16:40:40.322Z,26.00
2018-08-12T16:43:08.681Z,27.00
2018-08-12T16:45:37.014Z,26.90
2018-08-12T16:48:05.440Z,27.80
2018-08-12T16:50:33.752Z,28.30
2018-08-12T16:53:02.097Z,28.80
2018-08-12T16:55:30.635Z,28.00
2018-08-12T16:58:05.745Z,28.60
2018-08-12T17:00:34.051Z,28.80
2018-08-12T17:03:02.386Z,28.80
2018-08-12T17:05:30.693Z,29.50
2018-08-12T17:07:59.014Z,29.90
2018-08-12T17:10:27.308Z,29.60
2018-08-12T17:12:55.652Z,29.60
2018-08-12T17:15:24.414Z,30.10
2018-08-12T17:17:52.764Z,30.50
2018-08-12T17:20:22.024Z,30.40
2018-08-12T17:22:50.448Z,30.90
2018-08-12T17:25:18.794Z,31.20
2018-08-12T17:27:47.117Z,31.50
2018-08-12T17:30:16.361Z,31.40
2018-08-12T17:32:44.689Z,31.50
2018-08-12T17:35:13.004Z,32.30
2018-08-12T17:37:42.712Z,32.10
2018-08-12T17:40:12.431Z,33.00
2018-08-12T17:42:40.788Z,33.30
2018-08-12T17:45:10.504Z,33.40
2018-08-12T17:47:39.308Z,33.20
2018-08-12T17:50:08.703Z,33.20
2018-08-12T17:52:37.051Z,33.00
2018-08-12T17:55:05.870Z,33.70
2018-08-12T17:57:34.212Z,34.60
2018-08-12T18:00:02.715Z,34.40
2018-08-12T18:02:31.192Z,34.80
2018-08-12T18:04:59.480Z,35.20
2018-08-12T18:07:27.804Z,35.50
2018-08-12T18:09:56.157Z,35.70
2018-08-12T18:12:24.534Z,36.40
2018-08-12T18:14:53.426Z,36.70
2018-08-12T18:17:22.876Z,37.10
2018-08-12T18:19:51.232Z,37.40
2018-08-12T18:22:19.579Z,36.90
2018-08-12T18:24:48.269Z,36.40
2018-08-12T18:27:16.812Z,36.90
2018-08-12T18:29:45.204Z,37.10
2018-08-12T18:32:13.520Z,37.80
2018-08-12T18:34:41.995Z,37.80
2018-08-12T18:37:10.196Z,38.00
2018-08-12T18:39:38.766Z,38.60
2018-08-12T18:42:07.375Z,38.70
2018-08-12T18:44:35.689Z,38.20
2018-08-12T18:47:04.032Z,38.70
2018-08-12T18:49:32.351Z,38.70
2018-08-12T18:52:00.700Z,38.90
2018-08-12T18:54:29.176Z,39.30
2018-08-12T18:56:57.572Z,39.50
2018-08-12T18:59:25.937Z,39.50
2018-08-12T19:01:54.280Z,39.20
2018-08-12T19:04:22.948Z,39.60
2018-08-12T19:06:51.238Z,39.90
2018-08-12T19:09:19.672Z,39.70
2018-08-12T19:11:48.192Z,39.50
2018-08-12T19:14:16.858Z,39.50
2018-08-12T19:16:45.193Z,40.10
2018-08-12T19:19:13.554Z,39.90
2018-08-12T19:21:41.884Z,39.90
2018-08-12T19:24:10.243Z,40.70
2018-08-12T19:26:38.544Z,40.90
2018-08-12T19:29:07.269Z,40.90
2018-08-12T19:31:35.581Z,41.60
2018-08-12T19:34:03.936Z,41.40
2018-08-12T19:36:32.271Z,41.90
2018-08-12T19:39:00.613Z,42.10
2018-08-12T19:41:29.008Z,42.10
2018-08-12T19:43:57.290Z,42.40
2018-08-12T19:46:25.600Z,42.90
2018-08-12T19:48:54.484Z,43.20
2018-08-12T19:51:22.848Z,43.20
2018-08-12T19:53:51.188Z,42.30
2018-08-12T19:56:19.527Z,42.80
2018-08-12T19:58:47.850Z,43.00
2018-08-12T20:01:16.178Z,42.70
2018-08-12T20:03:44.501Z,42.80
2018-08-12T20:06:12.817Z,43.00
2018-08-12T20:08:41.131Z,43.30
2018-08-12T20:11:09.458Z,43.40
2018-08-12T20:13:37.804Z,43.20
2018-08-12T20:16:06.099Z,43.00
2018-08-12T20:18:34.427Z,43.10
2018-08-12T20:21:02.774Z,43.30
2018-08-12T20:23:31.108Z,43.50
2018-08-12T20:25:59.418Z,44.10
2018-08-12T20:28:27.786Z,44.40
2018-08-12T20:30:56.148Z,44.50
2018-08-12T20:33:24.496Z,44.50
2018-08-12T20:35:52.841Z,44.70
2018-08-12T20:38:21.184Z,44.80
2018-08-12T20:40:49.487Z,45.40
2018-08-12T20:43:17.812Z,45.70
2018-08-12T20:45:46.113Z,45.90
2018-08-12T20:48:14.436Z,45.90
2018-08-12T20:50:42.749Z,45.70
2018-08-12T20:53:11.076Z,45.90
2018-08-12T20:55:39.404Z,46.40
2018-08-12T20:58:07.745Z,46.30
2018-08-12T21:00:36.069Z,46.30
2018-08-12T21:03:04.394Z,46.60
2018-08-12T21:05:32.712Z,46.90
2018-08-12T21:08:01.059Z,46.70
2018-08-12T21:10:29.376Z,46.80
2018-08-12T21:12:57.675Z,47.30
2018-08-12T21:15:26.297Z,47.60
2018-08-12T21:17:54.637Z,47.50
2018-08-12T21:20:23.076Z,48.00
2018-08-12T21:22:51.393Z,48.00
2018-08-12T21:25:19.744Z,48.00
2018-08-12T21:27:48.057Z,48.40
2018-08-12T21:30:16.389Z,48.50
2018-08-12T21:32:44.685Z,48.80
2018-08-12T21:35:13.020Z,49.00
2018-08-12T21:37:41.322Z,49.40
2018-08-12T21:40:09.659Z,49.80
2018-08-12T21:42:37.987Z,49.90
2018-08-12T21:45:06.348Z,49.90
2018-08-12T21:47:34.920Z,49.60
2018-08-12T21:50:03.269Z,50.20
2018-08-12T21:52:31.571Z,50.00
2018-08-12T21:54:59.905Z,50.30
2018-08-12T21:57:28.215Z,50.30
2018-08-12T21:59:56.553Z,50.70
2018-08-12T22:02:24.936Z,50.80
2018-08-12T22:04:53.373Z,50.60
2018-08-12T22:07:21.684Z,50.60
2018-08-12T22:09:49.992Z,50.40
2018-08-12T22:12:18.313Z,50.90
2018-08-12T22:14:46.636Z,50.50
2018-08-12T22:17:14.925Z,51.20
2018-08-12T22:19:43.247Z,51.50
2018-08-12T22:22:11.669Z,51.50
2018-08-12T22:24:40.030Z,51.20
2018-08-12T22:27:08.335Z,51.40
2018-08-12T22:29:36.663Z,51.10
2018-08-12T22:32:04.992Z,51.30
2018-08-12T22:34:33.308Z,51.50
2018-08-12T22:37:01.617Z,51.60
2018-08-12T22:39:29.953Z,51.90
2018-08-12T22:41:58.268Z,52.00
2018-08-12T22:44:26.615Z,52.00
2018-08-12T22:46:54.971Z,52.30
2018-08-12T22:49:23.300Z,52.30
2018-08-12T22:51:51.603Z,52.20
2018-08-12T22:54:19.948Z,52.30
2018-08-12T22:56:48.269Z,52.00
2018-08-12T22:59:16.595Z,51.90
2018-08-12T23:01:44.897Z,52.10
2018-08-12T23:04:13.215Z,52.20
2018-08-12T23:06:41.535Z,52.70
2018-08-12T23:09:10.533Z,52.90
2018-08-12T23:11:39.237Z,53.10
2018-08-12T23:14:07.624Z,53.50
2018-08-12T23:16:47.333Z,53.90
2018-08-12T23:19:15.648Z,53.80
2018-08-12T23:21:43.963Z,53.90
2018-08-12T23:24:12.275Z,53.80
2018-08-12T23:26:40.613Z,53.70
2018-08-12T23:29:08.968Z,54.00
2018-08-12T23:31:37.295Z,54.10
2018-08-12T23:34:05.600Z,54.30
2018-08-12T23:36:33.923Z,54.60
2018-08-12T23:39:02.232Z,55.10
2018-08-12T23:41:30.554Z,55.60
2018-08-12T23:43:58.865Z,56.10
2018-08-12T23:46:27.206Z,56.30
2018-08-12T23:48:55.519Z,57.00
2018-08-12T23:51:23.899Z,57.20
2018-08-12T23:53:52.232Z,57.10
2018-08-12T23:56:20.585Z,56.90
2018-08-12T23:58:48.914Z,56.80
